Time;durP1;ratioP1;P1;durP2;ratioP2;P2;SDS_P1;SDS_P2;PMS_P1;PMS_P2;Temp;Humidity;BMP_temperature;BMP_pressure;BME280_temperature;BME280_humidity;BME280_pressure;Samples;Min_cycle;Max_cycle;Signal;HPM_P1;HPM_P2
2021/05/26 00:01:54;;;;;;;11.88;4.15;;;;;;;21.56;31.47;101546.22;5052667;28;20025;-77
2021/05/26 00:04:19;;;;;;;8.35;3.88;;;;;;;21.63;31.34;101537.22;5052587;28;20037;-78
2021/05/26 00:06:45;;;;;;;9.00;3.40;;;;;;;21.64;31.42;101541.59;5034763;28;20368;-75
2021/05/26 00:09:11;;;;;;;12.07;5.85;;;;;;;21.38;32.00;101541.47;5052577;28;20479;-75
2021/05/26 00:11:36;;;;;;;10.15;5.38;;;;;;;21.40;31.79;101537.16;5052555;28;20039;-75
2021/05/26 00:14:02;;;;;;;18.17;7.85;;;;;;;21.22;32.03;101531.22;5052464;28;20033;-75
2021/05/26 00:16:30;;;;;;;16.83;7.60;;;;;;;21.21;32.31;101548.25;5052447;28;20048;-74
2021/05/26 00:18:55;;;;;;;14.95;7.90;;;;;;;21.25;32.32;101543.59;5052489;28;20025;-76
2021/05/26 00:21:23;;;;;;;12.93;7.10;;;;;;;21.37;32.18;101545.41;5052389;28;20025;-75
2021/05/26 00:23:49;;;;;;;13.75;5.65;;;;;;;21.34;32.29;101555.31;5052287;28;20036;-76
2021/05/26 00:26:14;;;;;;;7.32;3.63;;;;;;;21.06;32.74;101547.97;5052210;28;20048;-75
2021/05/26 00:28:42;;;;;;;9.10;3.50;;;;;;;21.05;33.00;101551.09;5052333;28;20391;-75
2021/05/26 00:31:09;;;;;;;7.95;2.95;;;;;;;21.29;32.48;101544.47;5052323;28;20623;-74
2021/05/26 00:33:35;;;;;;;6.85;3.50;;;;;;;21.35;32.28;101545.78;5055657;28;20029;-75
2021/05/26 00:36:01;;;;;;;5.22;2.60;;;;;;;21.36;32.30;101539.06;5056374;28;20497;-77
2021/05/26 00:38:26;;;;;;;9.07;3.30;;;;;;;21.30;32.50;101543.31;5038451;28;20491;-75
2021/05/26 00:40:52;;;;;;;10.02;3.08;;;;;;;21.25;32.74;101538.03;5056343;28;20039;-74
2021/05/26 00:43:18;;;;;;;7.65;2.85;;;;;;;21.27;32.56;101535.69;5056304;28;20033;-75
2021/05/26 00:45:45;;;;;;;5.70;2.40;;;;;;;21.37;32.51;101543.44;5056150;28;20086;-75
2021/05/26 00:48:11;;;;;;;6.13;3.03;;;;;;;21.22;32.79;101545.09;5056261;28;20061;-75
2021/05/26 00:50:38;;;;;;;7.53;3.20;;;;;;;20.90;33.50;101533.31;5055853;28;20068;-75
2021/05/26 00:53:09;;;;;;;5.72;2.67;;;;;;;20.97;33.72;101541.00;5056108;28;20043;-74
2021/05/26 00:55:37;;;;;;;4.72;2.58;;;;;;;21.15;33.26;101542.19;5038176;28;20029;-75
2021/05/26 00:58:04;;;;;;;4.15;2.63;;;;;;;21.17;33.30;101544.63;5056039;28;20395;-75
2021/05/26 01:00:32;;;;;;;3.83;2.22;;;;;;;21.22;33.19;101544.31;5055976;28;20384;-75
2021/05/26 01:02:58;;;;;;;6.63;3.20;;;;;;;21.25;33.19;101538.03;5055998;28;20035;-74
2021/05/26 01:05:25;;;;;;;5.97;2.33;;;;;;;21.29;33.20;101538.91;5055854;28;20503;-75
2021/05/26 01:07:52;;;;;;;14.00;3.47;;;;;;;21.30;33.11;101546.09;5037812;28;20464;-75
2021/05/26 01:10:22;;;;;;;7.03;3.00;;;;;;;21.21;33.41;101546.28;5055838;28;20090;-75
2021/05/26 01:12:47;;;;;;;6.55;2.85;;;;;;;21.28;33.14;101535.34;5055781;28;20028;-74
2021/05/26 01:15:14;;;;;;;7.30;2.83;;;;;;;21.25;33.34;101538.03;5055728;28;20090;-75
2021/05/26 01:17:40;;;;;;;9.25;3.83;;;;;;;21.25;33.33;101532.47;5055678;28;20029;-76
2021/05/26 01:20:09;;;;;;;10.00;3.85;;;;;;;21.30;33.29;101540.53;5055601;28;20074;-75
2021/05/26 01:22:36;;;;;;;9.27;3.20;;;;;;;21.33;33.19;101540.59;5055606;28;20522;-74
2021/05/26 01:25:06;;;;;;;7.88;2.90;;;;;;;21.36;33.23;101543.81;5054134;28;20625;-75
2021/05/26 01:27:31;;;;;;;;;;;;;;;20.98;34.40;101537.88;5037461;28;20041;-74
2021/05/26 01:29:59;;;;;;;12.40;3.22;;;;;;;21.38;33.29;101541.47;5055490;28;19920;-74
2021/05/26 01:32:25;;;;;;;7.68;2.70;;;;;;;21.40;33.28;101534.38;5054127;28;20045;-74
2021/05/26 01:34:50;;;;;;;5.15;2.78;;;;;;;21.43;33.38;101546.75;5055308;28;20082;-75
2021/05/26 01:37:16;;;;;;;8.85;2.95;;;;;;;21.33;33.58;101537.81;5037464;28;20029;-75
2021/05/26 01:39:46;;;;;;;10.27;3.83;;;;;;;21.30;33.90;101534.97;5053887;28;20115;-76
2021/05/26 01:42:31;;;;;;;6.85;3.33;;;;;;;21.31;33.75;101537.41;5054899;28;20032;-76
2021/05/26 01:44:56;;;;;;;6.15;3.00;;;;;;;21.30;33.64;101546.88;5054045;28;20429;-74
2021/05/26 01:47:22;;;;;;;6.82;3.13;;;;;;;21.21;34.13;101539.91;5055161;28;20021;-74
2021/05/26 01:49:48;;;;;;;9.07;3.28;;;;;;;21.31;33.76;101536.56;5037161;28;20059;-75
2021/05/26 01:52:13;;;;;;;5.93;3.17;;;;;;;;;;5055028;28;20036;-75
2021/05/26 01:54:39;;;;;;;6.28;3.30;;;;;;;21.14;34.09;101543.34;5054994;28;20483;-74
2021/05/26 01:57:05;;;;;;;5.78;3.03;;;;;;;21.17;34.16;101536.28;5054892;28;20025;-74
2021/05/26 01:59:30;;;;;;;5.47;3.00;;;;;;;21.17;34.07;101537.09;5054491;28;20115;-75
2021/05/26 02:01:56;;;;;;;7.20;3.88;;;;;;;21.14;34.11;101531.44;5053549;28;20021;-76
2021/05/26 02:04:22;;;;;;;7.05;4.10;;;;;;;21.08;34.33;101530.91;5054725;28;20033;-76
2021/05/26 02:07:00;;;;;;;10.23;4.25;;;;;;;21.20;33.87;101530.78;5054717;28;20025;-75
2021/05/26 02:09:26;;;;;;;9.77;3.72;;;;;;;21.12;34.03;101531.00;5054782;28;20032;-74
2021/05/26 02:14:35;;;;;;;9.20;2.90;;;;;;;21.08;34.10;101539.25;5054682;28;20137;-74
2021/05/26 02:17:01;;;;;;;8.70;4.20;;;;;;;21.00;34.22;101523.59;5054541;28;20056;-75
2021/05/26 02:19:27;;;;;;;10.65;3.35;;;;;;;21.07;34.07;101529.31;5054533;28;20360;-75
2021/05/26 02:21:52;;;;;;;12.85;5.72;;;;;;;20.71;34.92;101527.75;5036542;28;20044;-75
2021/05/26 02:24:18;;;;;;;10.50;4.18;;;;;;;20.88;34.46;101534.88;5054336;28;20029;-74
2021/05/26 02:26:44;;;;;;;9.15;4.40;;;;;;;20.97;34.34;101535.47;5054190;28;20068;-75
2021/05/26 02:29:09;;;;;;;9.93;4.05;;;;;;;20.98;34.34;101532.31;5054339;28;20082;-75
2021/05/26 02:31:35;;;;;;;17.25;5.93;;;;;;;20.87;34.45;101538.81;5054326;28;20082;-75
2021/05/26 02:34:00;;;;;;;7.22;3.47;;;;;;;20.83;34.68;101535.94;5054232;28;20032;-75
2021/05/26 02:36:26;;;;;;;14.18;4.20;;;;;;;20.72;34.74;101541.28;5054155;28;20028;-75
2021/05/26 02:38:52;;;;;;;8.80;3.30;;;;;;;20.60;34.95;101529.47;5054176;28;20048;-76
2021/05/26 02:41:18;;;;;;;9.52;3.70;;;;;;;20.79;34.71;101535.09;5054066;28;20033;-74
2021/05/26 02:43:43;;;;;;;7.15;3.72;;;;;;;20.78;34.64;101539.84;5054139;28;20028;-76
2021/05/26 02:46:09;;;;;;;9.40;3.95;;;;;;;20.82;34.57;101537.13;5054028;28;20395;-75
2021/05/26 02:48:34;;;;;;;8.77;3.50;;;;;;;20.78;34.65;101533.44;5053956;28;20033;-75
2021/05/26 02:51:00;;;;;;;7.55;3.42;;;;;;;20.75;34.63;101540.53;5053923;28;20035;-75
2021/05/26 02:53:25;;;;;;;10.27;3.80;;;;;;;20.70;34.83;101546.38;5053913;28;20028;-74
2021/05/26 02:55:51;;;;;;;11.10;4.57;;;;;;;20.74;34.76;101543.69;5053617;28;20467;-74
2021/05/26 02:58:17;;;;;;;7.05;3.92;;;;;;;20.55;35.21;101538.88;5053854;28;20028;-74
2021/05/26 03:00:43;;;;;;;10.63;3.55;;;;;;;20.54;35.06;101542.03;5053679;28;20021;-75
2021/05/26 03:03:09;;;;;;;15.10;4.22;;;;;;;20.62;34.91;101541.03;5053756;28;20360;-75
2021/05/26 03:05:35;;;;;;;8.07;4.00;;;;;;;20.64;34.80;101539.50;5053617;28;20033;-75
2021/05/26 03:08:00;;;;;;;6.95;3.65;;;;;;;20.66;34.73;101545.50;5053551;28;20051;-75
2021/05/26 03:10:26;;;;;;;8.82;4.05;;;;;;;20.95;34.19;101540.56;5053524;28;20024;-75
2021/05/26 03:12:52;;;;;;;14.20;4.63;;;;;;;20.98;34.02;101545.41;5053519;28;20059;-75
2021/05/26 03:15:18;;;;;;;15.38;5.78;;;;;;;20.96;34.01;101540.22;5053439;28;20029;-75
2021/05/26 03:17:44;;;;;;;14.82;5.93;;;;;;;20.93;33.92;101546.50;5053446;28;20051;-75
2021/05/26 03:20:14;;;;;;;11.95;6.28;;;;;;;20.88;34.06;101541.22;5053303;28;20029;-75
2021/05/26 03:22:41;;;;;;;13.23;6.30;;;;;;;20.89;34.12;101542.84;5053384;28;20036;-75
2021/05/26 03:25:09;;;;;;;9.20;5.47;;;;;;;20.85;34.13;101547.50;5052949;28;20116;-74
2021/05/26 03:27:37;;;;;;;11.57;5.65;;;;;;;20.88;33.99;101546.78;5051490;28;20053;-75
2021/05/26 03:30:14;;;;;;;12.75;6.82;;;;;;;20.87;33.92;101541.59;5053195;28;20028;-74
2021/05/26 03:32:41;;;;;;;18.88;7.82;;;;;;;20.81;34.02;101549.41;5035594;28;20112;-75
2021/05/26 03:35:09;;;;;;;19.95;9.65;;;;;;;20.80;34.02;101563.66;5052923;28;20025;-75
2021/05/26 03:37:35;;;;;;;12.73;6.32;;;;;;;20.67;34.15;101558.22;5052977;28;20029;-74
2021/05/26 03:40:00;;;;;;;13.10;7.13;;;;;;;20.70;34.06;101557.47;5053006;28;20090;-75
2021/05/26 03:42:26;;;;;;;14.95;6.60;;;;;;;20.72;34.12;101562.69;5052854;28;20020;-74
2021/05/26 03:44:53;;;;;;;17.58;7.05;;;;;;;20.70;34.00;101559.44;5051973;28;20111;-75
2021/05/26 03:47:19;;;;;;;13.82;6.90;;;;;;;20.66;34.17;101562.16;5051410;28;20491;-75
2021/05/26 03:49:44;;;;;;;17.27;8.00;;;;;;;20.68;34.33;101561.78;5052254;28;20032;-75
2021/05/26 03:52:11;;;;;;;16.45;6.47;;;;;;;20.59;34.29;101556.44;5052728;28;20509;-75
2021/05/26 03:54:37;;;;;;;14.02;6.88;;;;;;;20.64;34.30;101563.69;5052748;28;20079;-74
2021/05/26 03:57:05;;;;;;;20.35;6.20;;;;;;;20.60;34.45;101557.25;5052617;28;20021;-75
2021/05/26 03:59:30;;;;;;;9.50;4.93;;;;;;;20.67;34.40;101563.75;5034181;28;20064;-75
2021/05/26 04:01:56;;;;;;;9.95;4.47;;;;;;;20.69;34.39;101571.72;5052714;28;20052;-76
2021/05/26 04:04:22;;;;;;;9.18;4.70;;;;;;;20.62;34.55;101569.59;5034698;28;20025;-75
2021/05/26 04:06:48;;;;;;;11.32;5.40;;;;;;;20.56;34.59;101562.72;5052057;28;20368;-75
2021/05/26 04:09:13;;;;;;;11.70;5.57;;;;;;;20.65;34.51;101565.31;5052659;28;20036;-75
2021/05/26 04:11:40;;;;;;;12.10;6.18;;;;;;;20.60;34.46;101565.56;5052531;28;20029;-75
2021/05/26 04:14:06;;;;;;;14.45;7.85;;;;;;;20.54;34.71;101569.78;5034682;28;20460;-75
2021/05/26 04:16:31;;;;;;;16.80;8.63;;;;;;;20.47;34.71;101568.44;5052505;28;20024;-75
2021/05/26 04:18:57;;;;;;;24.85;9.75;;;;;;;20.41;34.68;101575.44;5054953;28;20119;-81
2021/05/26 04:21:22;;;;;;;16.20;8.90;;;;;;;20.36;34.94;101572.91;5044067;28;20029;-75
2021/05/26 04:23:48;;;;;;;17.40;8.13;;;;;;;20.36;34.77;101574.88;5060362;28;20518;-77
2021/05/26 04:26:13;;;;;;;22.05;9.23;;;;;;;20.30;34.91;101582.69;5060331;28;20426;-83
2021/05/26 04:28:44;;;;;;;13.32;8.85;;;;;;;20.39;34.62;101574.16;5063177;28;20020;-74
2021/05/26 04:31:11;;;;;;;12.93;7.80;;;;;;;20.44;34.53;101577.50;5060396;28;20025;-77
2021/05/26 04:33:36;;;;;;;15.90;8.73;;;;;;;20.46;34.51;101579.91;5063282;28;20028;-79
2021/05/26 04:36:02;;;;;;;18.67;7.05;;;;;;;20.43;34.70;101577.84;5063516;28;20036;-74
2021/05/26 04:38:28;;;;;;;16.05;6.68;;;;;;;20.50;34.31;101580.81;5041991;28;20024;-74
2021/05/26 04:40:54;;;;;;;13.48;6.07;;;;;;;20.53;34.36;101595.94;5061728;28;20055;-74
2021/05/26 04:43:20;;;;;;;18.45;7.25;;;;;;;20.49;34.42;101591.13;5059565;28;20021;-74
2021/05/26 04:45:45;;;;;;;13.15;6.15;;;;;;;20.59;34.46;101586.19;5062249;28;20071;-80
2021/05/26 04:48:11;;;;;;;15.65;5.55;;;;;;;20.62;34.59;101589.03;5060289;28;20471;-75
2021/05/26 04:50:37;;;;;;;12.32;5.50;;;;;;;20.73;34.54;101586.50;5061319;28;20367;-75
2021/05/26 04:53:03;;;;;;;13.38;4.88;;;;;;;20.68;34.72;101589.56;5044004;28;20076;-81
2021/05/26 04:55:29;;;;;;;14.13;4.72;;;;;;;20.65;34.94;101579.19;5059744;28;20036;-75
2021/05/26 04:58:08;;;;;;;9.88;4.93;;;;;;;20.62;35.22;101575.13;5061532;28;20399;-75
2021/05/26 05:00:34;;;;;;;14.98;5.90;;;;;;;20.71;34.87;101569.41;5057175;28;20150;-77
2021/05/26 05:03:00;;;;;;;10.65;5.85;;;;;;;20.71;35.05;101575.78;5061579;28;20525;-76
2021/05/26 05:05:32;;;;;;;12.05;6.93;;;;;;;20.70;35.29;101573.34;5059894;28;20115;-77
2021/05/26 05:08:05;;;;;;;17.25;5.50;;;;;;;20.88;35.02;101577.34;5061181;28;20021;-76
2021/05/26 05:10:32;;;;;;;15.32;5.57;;;;;;;20.94;35.09;101570.34;5057559;28;20070;-75
2021/05/26 05:13:01;;;;;;;17.70;6.55;;;;;;;20.95;35.25;101583.06;5060915;28;20021;-75
2021/05/26 05:15:28;;;;;;;15.30;5.63;;;;;;;20.99;35.14;101577.56;5061908;28;20021;-76
2021/05/26 05:17:54;;;;;;;13.05;5.20;;;;;;;20.99;35.36;101578.38;5062372;28;20064;-77
2021/05/26 05:20:21;;;;;;;15.40;6.38;;;;;;;20.85;35.73;101583.59;5064886;28;20017;-76
2021/05/26 05:22:53;;;;;;;11.63;6.35;;;;;;;20.74;36.12;101582.56;5063622;28;20534;-76
2021/05/26 05:25:20;;;;;;;18.83;8.35;;;;;;;20.82;35.95;101584.34;5064543;28;20025;-77
2021/05/26 05:27:46;;;;;;;16.35;7.13;;;;;;;20.90;35.92;101583.31;5047333;28;20041;-76
2021/05/26 05:30:12;;;;;;;16.15;8.02;;;;;;;20.98;35.92;101585.09;5045718;28;20024;-74
2021/05/26 05:32:38;;;;;;;14.80;8.45;;;;;;;21.04;35.75;101583.66;5046704;28;20035;-75
2021/05/26 05:35:05;;;;;;;26.08;10.07;;;;;;;20.97;36.24;101589.03;5073284;28;20025;-75
2021/05/26 05:37:31;;;;;;;23.05;9.93;;;;;;;20.98;36.31;101590.66;5056392;28;20020;-75
2021/05/26 05:39:56;;;;;;;23.30;10.35;;;;;;;21.15;36.08;101589.41;5062726;28;20052;-77
2021/05/26 05:42:22;;;;;;;15.38;8.52;;;;;;;21.10;36.51;101586.16;5047951;28;20021;-76
2021/05/26 05:44:48;;;;;;;16.00;7.80;;;;;;;21.15;36.25;101586.63;5027809;28;20516;-76
2021/05/26 05:47:14;;;;;;;22.02;9.05;;;;;;;21.42;36.14;101587.63;5044995;28;20386;-76
2021/05/26 05:49:40;;;;;;;17.33;6.30;;;;;;;21.70;36.06;101592.16;5043732;28;20028;-78
2021/05/26 05:52:09;;;;;;;10.10;4.20;;;;;;;21.89;35.98;101589.31;5043435;28;20024;-78
2021/05/26 05:54:35;;;;;;;6.22;4.38;;;;;;;22.14;35.48;101589.78;5045839;28;20374;-77
2021/05/26 05:57:02;;;;;;;11.95;4.53;;;;;;;22.34;35.26;101590.53;5052891;28;20383;-78
2021/05/26 05:59:27;;;;;;;8.18;3.00;;;;;;;22.51;34.84;101598.38;5062972;28;20355;-77
2021/05/26 06:01:53;;;;;;;8.60;3.38;;;;;;;22.64;34.85;101594.19;5062465;28;20059;-77
2021/05/26 06:04:19;;;;;;;18.85;4.80;;;;;;;22.63;35.08;101591.78;5064057;28;20020;-77
2021/05/26 06:06:44;;;;;;;7.50;3.33;;;;;;;22.67;34.62;101595.41;5061602;28;20024;-77
2021/05/26 06:09:10;;;;;;;9.77;3.88;;;;;;;22.66;34.84;101591.84;5064437;28;20028;-78
2021/05/26 06:11:35;;;;;;;9.10;3.10;;;;;;;22.68;34.67;101597.06;5061586;28;20048;-77
2021/05/26 06:14:06;;;;;;;12.52;4.20;;;;;;;22.47;35.11;101591.16;5045228;28;20104;-76
2021/05/26 06:16:33;;;;;;;13.25;4.22;;;;;;;22.60;34.61;101595.34;5048072;28;20452;-76
2021/05/26 06:18:59;;;;;;;8.88;4.07;;;;;;;22.77;34.36;101603.16;5064596;28;20029;-77
2021/05/26 06:21:25;;;;;;;9.55;3.97;;;;;;;22.73;34.44;101598.69;5059932;28;20078;-76
2021/05/26 06:23:51;;;;;;;12.23;4.20;;;;;;;22.86;34.30;101591.75;5062483;28;20397;-77
2021/05/26 06:26:16;;;;;;;15.32;3.60;;;;;;;22.69;34.42;101605.03;5062504;28;20406;-76
2021/05/26 06:28:42;;;;;;;9.57;3.08;;;;;;;22.70;34.55;101606.63;5064500;28;20134;-77
2021/05/26 06:31:07;;;;;;;10.75;3.35;;;;;;;22.68;34.41;101603.44;5062088;28;20096;-77
2021/05/26 06:33:33;;;;;;;10.15;3.33;;;;;;;22.85;34.23;101601.28;5065030;28;20100;-76
2021/05/26 06:35:59;;;;;;;11.38;3.95;;;;;;;22.89;34.12;101599.34;5062320;28;20727;-75
2021/05/26 06:38:24;;;;;;;7.50;2.90;;;;;;;22.80;34.55;101598.81;5064149;28;20020;-76
2021/05/26 06:40:50;;;;;;;7.78;3.38;;;;;;;22.89;34.30;101602.94;5062888;28;20103;-77
2021/05/26 06:43:15;;;;;;;11.40;3.28;;;;;;;22.90;34.14;101604.56;5064833;28;20013;-76
2021/05/26 06:45:41;;;;;;;9.82;3.72;;;;;;;23.10;33.96;101605.22;5073873;28;20040;-76
2021/05/26 06:48:07;;;;;;;10.00;3.33;;;;;;;22.87;34.34;101605.31;5055976;28;20020;-75
2021/05/26 06:50:32;;;;;;;13.32;3.42;;;;;;;23.04;34.19;101608.72;5073913;28;20108;-75
2021/05/26 06:52:58;;;;;;;11.98;3.75;;;;;;;23.09;34.05;101606.41;5073844;28;20063;-76
2021/05/26 06:55:23;;;;;;;8.63;3.03;;;;;;;23.35;33.86;101605.56;5055613;28;20471;-76
2021/05/26 06:57:49;;;;;;;10.15;3.90;;;;;;;23.39;33.94;101611.97;5073467;28;20475;-76
2021/05/26 07:00:15;;;;;;;19.55;4.53;;;;;;;23.49;33.76;101613.28;5073411;28;20039;-75
2021/05/26 07:02:40;;;;;;;12.07;2.88;;;;;;;23.59;33.45;101612.63;5073666;28;20032;-75
2021/05/26 07:05:07;;;;;;;7.82;3.28;;;;;;;23.88;33.07;101615.75;5073521;28;20124;-77
2021/05/26 07:07:32;;;;;;;8.73;3.28;;;;;;;24.03;32.60;101612.75;5055639;28;20437;-75
2021/05/26 07:09:58;;;;;;;10.27;3.45;;;;;;;24.11;32.38;101624.78;5073497;28;20024;-74
2021/05/26 07:12:23;;;;;;;5.72;3.20;;;;;;;24.10;32.55;101614.78;5036335;28;20024;-77
2021/05/26 07:14:49;;;;;;;10.73;4.13;;;;;;;24.05;32.66;101607.56;5057811;28;20378;-77
2021/05/26 07:17:15;;;;;;;8.15;2.90;;;;;;;24.20;32.14;101613.28;5029600;28;20675;-78
2021/05/26 07:19:41;;;;;;;9.93;2.88;;;;;;;24.29;32.14;101605.38;5036563;28;20060;-75
2021/05/26 07:22:06;;;;;;;5.55;2.50;;;;;;;24.14;32.15;101603.66;5018480;28;20978;-75
2021/05/26 07:24:32;;;;;;;6.47;2.72;;;;;;;24.28;32.17;101610.16;5036968;28;20039;-75
2021/05/26 07:26:58;;;;;;;9.63;2.85;;;;;;;24.17;32.24;101612.03;5037139;28;20053;-75
2021/05/26 07:29:24;;;;;;;12.55;3.90;;;;;;;24.32;31.97;101605.44;5035928;28;20033;-76
2021/05/26 07:31:49;;;;;;;27.13;5.53;;;;;;;24.33;32.17;101603.44;5035452;28;20056;-75
2021/05/26 07:34:15;;;;;;;16.10;3.90;;;;;;;24.18;32.25;101610.88;5037424;28;20057;-75
2021/05/26 07:36:40;;;;;;;11.98;3.58;;;;;;;24.73;31.18;101619.31;5017908;28;20032;-75
2021/05/26 07:39:06;;;;;;;7.60;3.05;;;;;;;24.78;31.48;101616.16;5036296;28;20024;-75
2021/05/26 07:41:32;;;;;;;11.40;3.38;;;;;;;24.74;30.99;101618.13;5035289;28;20100;-75
2021/05/26 07:43:57;;;;;;;9.70;3.58;;;;;;;24.98;30.73;101604.69;5035098;28;20046;-75
2021/05/26 07:46:23;;;;;;;6.07;2.47;;;;;;;25.04;30.99;101605.97;5036137;28;20437;-75
2021/05/26 07:48:52;;;;;;;7.53;2.70;;;;;;;24.98;30.98;101607.50;5036069;28;20029;-75
2021/05/26 07:51:26;;;;;;;8.55;3.20;;;;;;;24.89;30.82;101614.22;5034771;28;20417;-75
2021/05/26 07:53:53;;;;;;;6.35;2.50;;;;;;;25.23;30.28;101616.03;5035675;28;20079;-76
2021/05/26 07:56:20;;;;;;;7.18;2.72;;;;;;;25.27;30.56;101612.06;5037948;28;20044;-75
2021/05/26 07:58:45;;;;;;;8.75;3.30;;;;;;;25.11;30.61;101606.81;5054649;28;20107;-75
2021/05/26 08:01:11;;;;;;;9.23;4.25;;;;;;;25.28;30.38;101615.66;5072492;28;20030;-75
2021/05/26 08:03:36;;;;;;;9.32;3.25;;;;;;;25.50;29.93;101611.75;5072633;28;20386;-75
2021/05/26 08:06:02;;;;;;;6.47;2.95;;;;;;;25.57;30.04;101614.59;5072408;28;20025;-75
2021/05/26 08:08:28;;;;;;;4.95;2.63;;;;;;;25.51;30.08;101613.34;5072414;28;20028;-75
2021/05/26 08:10:54;;;;;;;7.70;3.00;;;;;;;25.72;29.87;101615.47;5072455;28;20016;-75
2021/05/26 08:13:19;;;;;;;5.65;2.72;;;;;;;25.88;29.90;101610.28;5072548;28;20021;-75
2021/05/26 08:15:45;;;;;;;5.40;2.83;;;;;;;25.99;29.32;101602.69;5072518;28;20028;-75
2021/05/26 08:18:11;;;;;;;5.72;2.88;;;;;;;26.10;29.38;101613.13;5065361;28;20020;-76
2021/05/26 08:20:39;;;;;;;8.88;3.30;;;;;;;26.00;29.63;101611.94;5059449;28;20096;-76
2021/05/26 08:23:04;;;;;;;8.95;3.50;;;;;;;26.28;29.38;101611.13;5057696;28;20025;-75
2021/05/26 08:25:30;;;;;;;4.53;2.20;;;;;;;26.23;29.01;101614.34;5060091;28;20033;-75
2021/05/26 08:27:56;;;;;;;9.95;3.58;;;;;;;26.05;28.71;101613.50;5056410;28;20149;-75
2021/05/26 08:30:21;;;;;;;7.40;3.40;;;;;;;26.03;28.83;101615.91;5063205;28;20537;-75
2021/05/26 08:32:48;;;;;;;10.80;3.33;;;;;;;25.97;28.85;101621.91;5061009;28;20855;-75
2021/05/26 08:35:14;;;;;;;8.30;2.88;;;;;;;25.97;28.67;101616.31;5062299;28;20028;-75
2021/05/26 08:37:39;;;;;;;4.85;2.50;;;;;;;26.14;28.19;101608.31;5060582;28;20479;-75
2021/05/26 08:40:06;;;;;;;15.48;4.07;;;;;;;26.23;28.34;101611.53;5066015;28;20033;-75
2021/05/26 08:42:32;;;;;;;11.05;3.78;;;;;;;26.22;28.53;101607.94;5072268;28;20038;-75
2021/05/26 08:44:58;;;;;;;10.00;3.10;;;;;;;26.23;29.11;101612.34;5072120;28;20410;-75
2021/05/26 08:47:26;;;;;;;6.95;4.05;;;;;;;26.21;28.36;101617.53;5072095;28;20112;-75
2021/05/26 08:49:52;;;;;;;7.22;3.40;;;;;;;26.17;28.42;101611.13;5071998;28;20078;-74
2021/05/26 08:52:19;;;;;;;4.57;2.25;;;;;;;26.18;28.87;101603.53;5059526;28;20059;-74
2021/05/26 08:54:47;;;;;;;6.60;2.50;;;;;;;26.02;28.86;101619.91;5063536;28;20041;-75
2021/05/26 08:57:13;;;;;;;5.47;2.58;;;;;;;26.19;28.46;101622.72;5066823;28;20099;-74
2021/05/26 08:59:39;;;;;;;4.90;2.63;;;;;;;26.05;28.47;101631.13;5064724;28;20475;-74
2021/05/26 09:02:08;;;;;;;8.07;2.55;;;;;;;26.11;28.52;101625.94;5065917;28;20039;-75
2021/05/26 09:04:35;;;;;;;10.77;2.70;;;;;;;26.44;28.10;101627.56;5063260;28;20561;-75
2021/05/26 09:07:18;;;;;;;5.45;2.50;;;;;;;26.78;27.86;101617.53;5068437;28;20032;-74
2021/05/26 09:09:54;;;;;;;6.47;2.80;;;;;;;26.76;28.07;101619.94;5075889;28;20436;-75
2021/05/26 09:12:30;;;;;;;9.43;2.78;;;;;;;26.70;27.66;101617.97;5075805;28;20024;-75
2021/05/26 09:15:05;;;;;;;8.77;2.78;;;;;;;26.78;27.76;101619.53;5075739;28;20081;-72
2021/05/26 09:17:33;;;;;;;6.15;2.20;;;;;;;26.71;28.21;101619.56;5057359;28;20082;-72
2021/05/26 09:20:26;;;;;;;7.28;2.15;;;;;;;26.78;27.60;101616.75;5073678;28;20058;-74
2021/05/26 09:23:10;;;;;;;8.40;2.33;;;;;;;26.88;27.81;101615.09;5058358;28;20100;-73
2021/05/26 09:25:57;;;;;;;3.58;1.77;;;;;;;26.96;27.15;101622.28;5064812;28;20039;-72
2021/05/26 09:28:31;;;;;;;9.48;2.60;;;;;;;26.97;27.20;101619.09;5059528;28;20041;-72
2021/05/26 09:31:11;;;;;;;7.10;2.05;;;;;;;27.08;27.24;101616.28;5045425;28;20050;-74
2021/05/26 09:33:40;;;;;;;6.72;2.22;;;;;;;27.33;26.94;101613.38;5063404;28;20017;-72
2021/05/26 09:36:12;;;;;;;7.15;2.40;;;;;;;27.40;26.73;101612.56;5059856;28;20585;-72
2021/05/26 09:38:44;;;;;;;8.05;2.17;;;;;;;27.34;26.46;101617.78;5045475;28;20029;-73
2021/05/26 09:41:12;;;;;;;8.27;2.50;;;;;;;27.32;26.15;101620.22;5061118;28;20063;-74
2021/05/26 09:43:43;;;;;;;20.20;4.20;;;;;;;27.37;26.29;101619.81;5063448;28;20016;-75
2021/05/26 09:46:18;;;;;;;8.38;2.53;;;;;;;27.16;26.65;101614.25;5059797;28;20487;-74
2021/05/26 09:48:58;;;;;;;6.53;2.75;;;;;;;27.40;26.51;101618.97;5054709;28;20135;-74
2021/05/26 09:51:28;;;;;;;;;;;;;;;27.59;26.20;101609.28;5053041;28;20029;-76
2021/05/26 09:54:22;;;;;;;12.90;3.53;;;;;;;27.85;26.26;101619.97;5054605;28;20278;-75
2021/05/26 09:56:53;;;;;;;7.75;2.22;;;;;;;27.96;26.17;101624.69;5043406;28;20270;-74
2021/05/26 09:59:21;;;;;;;8.40;3.25;;;;;;;27.80;26.33;101616.78;5062763;28;20057;-74
2021/05/26 10:01:47;;;;;;;8.43;3.33;;;;;;;27.76;26.46;101622.44;5050742;28;20081;-74
2021/05/26 10:04:12;;;;;;;6.80;3.30;;;;;;;27.78;26.09;101619.22;5072796;28;20021;-74
2021/05/26 10:06:40;;;;;;;7.53;2.90;;;;;;;27.78;26.44;101617.19;5072261;28;20052;-76
2021/05/26 10:09:09;;;;;;;7.13;2.33;;;;;;;27.87;26.37;101613.94;5072870;28;20035;-74
2021/05/26 10:11:35;;;;;;;12.75;3.20;;;;;;;28.02;26.33;101621.06;5072841;28;20028;-74
2021/05/26 10:14:05;;;;;;;10.63;2.90;;;;;;;27.77;26.27;101621.22;5072682;28;20031;-75
2021/05/26 10:16:33;;;;;;;7.25;2.30;;;;;;;27.91;26.10;101615.53;5073215;28;20020;-74
2021/05/26 10:19:02;;;;;;;3.42;2.22;;;;;;;28.00;25.85;101611.44;5074011;28;20479;-74
2021/05/26 10:21:30;;;;;;;4.72;2.80;;;;;;;28.15;25.59;101608.13;5064674;28;20017;-73
2021/05/26 10:23:57;;;;;;;7.72;2.55;;;;;;;28.25;25.51;101616.88;5036331;28;20021;-76
2021/05/26 10:26:55;;;;;;;6.40;2.42;;;;;;;28.29;24.46;101612.03;5053873;28;20112;-74
2021/05/26 10:29:30;;;;;;;7.13;2.60;;;;;;;28.39;25.47;101620.41;5054369;28;20079;-74
2021/05/26 10:32:00;;;;;;;3.25;1.90;;;;;;;28.48;25.36;101608.66;5036199;28;20418;-76
2021/05/26 10:34:49;;;;;;;4.25;2.00;;;;;;;28.35;25.64;101616.03;5053896;28;20025;-74
2021/05/26 10:37:33;;;;;;;3.65;1.88;;;;;;;28.54;24.59;101614.66;5036221;28;20036;-74
2021/05/26 10:39:59;;;;;;;7.55;2.55;;;;;;;28.86;25.05;101611.50;5036303;28;20119;-75
2021/05/26 10:42:29;;;;;;;3.92;2.03;;;;;;;28.75;25.53;101612.44;5054142;28;20082;-74
2021/05/26 10:44:56;;;;;;;;;;;;;;;28.35;26.41;101616.84;5036522;28;20040;-74
2021/05/26 10:47:39;;;;;;;4.20;2.67;;;;;;;27.94;26.72;101611.06;5053987;28;19916;-75
2021/05/26 10:50:24;;;;;;;6.78;3.03;;;;;;;28.03;27.07;101608.59;5053488;28;20052;-75
2021/05/26 10:52:56;;;;;;;7.53;3.28;;;;;;;27.54;27.12;101609.69;5052355;28;20029;-74
2021/05/26 10:55:38;;;;;;;20.17;4.75;;;;;;;27.52;27.58;101624.13;5053862;28;20032;-74
2021/05/26 10:58:17;;;;;;;8.65;3.55;;;;;;;27.61;27.38;101609.66;5053636;28;20053;-75
2021/05/26 11:01:09;;;;;;;7.18;3.13;;;;;;;27.42;27.63;101604.53;5035900;28;20482;-74
2021/05/26 11:03:38;;;;;;;5.22;3.05;;;;;;;27.43;27.62;101604.13;5053422;28;20048;-76
2021/05/26 11:06:14;;;;;;;8.82;3.45;;;;;;;27.37;27.75;101605.78;5035644;28;20036;-75
2021/05/26 11:08:43;;;;;;;6.43;3.42;;;;;;;27.74;27.38;101610.81;5053578;28;20101;-74
2021/05/26 11:11:23;;;;;;;5.32;2.92;;;;;;;27.91;27.46;101609.91;5053582;28;20104;-74
2021/05/26 11:16:49;;;;;;;3.65;2.50;;;;;;;28.09;25.98;101612.56;5053288;28;20411;-74
2021/05/26 11:19:20;;;;;;;8.30;2.65;;;;;;;28.09;25.82;101612.56;5053414;28;20029;-73
2021/05/26 11:22:06;;;;;;;4.82;3.15;;;;;;;28.17;26.00;101608.50;5051816;28;20502;-74
2021/05/26 11:24:38;;;;;;;4.25;2.13;;;;;;;28.43;25.54;101606.31;5053331;28;20050;-74
2021/05/26 11:27:20;;;;;;;3.63;1.60;;;;;;;28.04;24.31;101601.78;5053071;28;20045;-74
2021/05/26 11:29:50;;;;;;;10.48;2.42;;;;;;;28.70;24.24;101604.44;5053214;28;20025;-74
2021/05/26 11:32:17;;;;;;;7.80;2.78;;;;;;;28.86;24.63;101605.88;5053265;28;20027;-72